Time;durP1;ratioP1;P1;durP2;ratioP2;P2;SDS_P1;SDS_P2;PMS_P1;PMS_P2;Temp;Humidity;BMP_temperature;BMP_pressure;BME280_temperature;BME280_humidity;BME280_pressure;Samples;Min_cycle;Max_cycle;Signal;HPM_P1;HPM_P2
2022/06/10 00:01:32;;;;;;;12.20;3.85;;;;;;;12.05;88.01;101887.16;5042837;28;20033;-92
2022/06/10 00:10:45;;;;;;;;;;;;;;;;;;;;;
2022/06/10 00:13:23;;;;;;;13.37;3.80;;;;;;;11.97;88.56;101887.28;5056525;28;20049;-91
2022/06/10 00:22:07;;;;;;;16.10;3.65;;;;;;;12.03;88.49;101891.97;5037473;28;20053;-92
2022/06/10 00:28:51;;;;;;;9.23;3.40;;;;;;;12.15;87.43;101888.66;5037057;28;20111;-92
2022/06/10 00:44:52;;;;;;;7.87;3.20;;;;;;;12.30;87.20;101886.66;5036586;28;20068;-92
2022/06/10 00:48:11;;;;;;;9.32;2.67;;;;;;;12.38;86.65;101891.91;5035737;28;20038;-93
2022/06/10 00:51:22;;;;;;;8.90;2.95;;;;;;;12.42;86.02;101884.22;5003021;28;20034;-92
2022/06/10 00:54:10;;;;;;;10.75;2.72;;;;;;;12.48;85.83;101885.28;5036380;28;20094;-92
2022/06/10 00:57:09;;;;;;;;;;;;;;;;;;;;;
2022/06/10 00:59:46;;;;;;;10.40;3.23;;;;;;;12.55;86.18;101877.97;5036003;28;20378;-92
2022/06/10 01:02:24;;;;;;;11.02;3.92;;;;;;;12.55;85.95;101873.38;5034846;28;20133;-92
2022/06/10 01:12:36;;;;;;;;;;;;;;;;;;;;;
2022/06/10 01:15:47;;;;;;;;;;;;;;;;;;;;;
2022/06/10 01:18:25;;;;;;;11.65;3.20;;;;;;;12.78;85.50;101889.38;5035692;28;20025;-93
2022/06/10 01:21:54;;;;;;;;;;;;;;;;;;;;;
2022/06/10 01:35:20;;;;;;;;;;;;;;;;;;;;;
2022/06/10 01:37:47;;;;;;;11.10;2.55;;;;;;;12.95;83.51;101878.09;5031771;28;20033;-92
2022/06/10 01:41:26;;;;;;;9.82;2.22;;;;;;;13.01;83.28;101887.31;5034713;28;20033;-92
2022/06/10 01:44:19;;;;;;;;;;;;;;;;;;;;;
2022/06/10 01:47:30;;;;;;;9.10;2.40;;;;;;;13.10;83.10;101876.03;5035616;28;20029;-92
2022/06/10 01:53:57;;;;;;;9.55;3.08;;;;;;;13.15;83.39;101887.16;5036665;28;20043;-91
2022/06/10 02:31:32;;;;;;;;;;;;;;;;;;;;;
2022/06/10 02:55:12;;;;;;;;;;;;;;;;;;;;;
2022/06/10 03:01:31;;;;;;;;;;;;;;;;;;;;;
2022/06/10 03:07:58;;;;;;;8.45;2.30;;;;;;;13.50;83.41;101916.16;5023421;28;20052;-92
2022/06/10 03:11:06;;;;;;;12.40;2.80;;;;;;;13.46;83.79;101913.00;5032706;28;20037;-92
2022/06/10 03:14:03;;;;;;;9.20;2.28;;;;;;;13.55;84.13;101918.25;5016085;28;20164;-92
2022/06/10 03:17:20;;;;;;;10.05;2.10;;;;;;;13.56;83.38;101914.47;5015689;28;20064;-92
2022/06/10 03:24:24;;;;;;;;;;;;;;;;;;;;;
2022/06/10 03:31:10;;;;;;;;;;;;;;;;;;;;;
2022/06/10 03:38:05;;;;;;;;;;;;;;;;;;;;;
2022/06/10 03:48:19;;;;;;;;;;;;;;;;;;;;;
2022/06/10 03:51:08;;;;;;;8.68;2.17;;;;;;;13.62;85.23;101914.47;4962741;28;20041;-92
2022/06/10 03:54:19;;;;;;;;;;;;;;;;;;;;;
2022/06/10 03:57:29;;;;;;;;;;;;;;;;;;;;;
2022/06/10 04:18:04;;;;;;;7.67;1.97;;;;;;;13.96;84.42;101945.28;4842524;29;20036;-93
2022/06/10 04:28:47;;;;;;;7.53;2.13;;;;;;;13.82;86.35;101947.19;4753762;30;20136;-93
2022/06/10 05:29:10;;;;;;;14.20;2.25;;;;;;;14.91;84.05;101935.81;4684696;30;20069;-88
2022/06/10 05:31:38;;;;;;;10.50;2.00;;;;;;;15.03;83.46;101928.63;4744370;29;20056;-88
2022/06/10 05:36:47;;;;;;;10.70;2.17;;;;;;;15.36;81.73;101935.75;5035133;28;20535;-87
2022/06/10 05:39:15;;;;;;;9.88;1.88;;;;;;;15.47;81.47;101927.91;5017700;28;20041;-87
2022/06/10 05:44:25;;;;;;;9.73;2.00;;;;;;;15.66;80.11;101937.84;5035147;28;20048;-87
2022/06/10 05:46:52;;;;;;;14.13;2.42;;;;;;;15.74;79.72;101940.31;5016982;28;20103;-86
2022/06/10 05:49:21;;;;;;;12.65;1.92;;;;;;;15.84;79.58;101941.72;5035051;28;20034;-87
2022/06/10 05:51:47;;;;;;;15.57;1.90;;;;;;;15.90;78.61;101928.00;5049253;28;20034;-87
2022/06/10 05:54:12;;;;;;;8.47;1.67;;;;;;;15.99;78.82;101930.44;5016649;28;20492;-87
2022/06/10 05:56:39;;;;;;;12.10;2.13;;;;;;;16.09;79.03;101933.50;5016664;28;20025;-87
2022/06/10 05:59:05;;;;;;;11.93;2.20;;;;;;;16.24;78.00;101933.97;5017478;28;20030;-87
2022/06/10 06:01:30;;;;;;;7.63;2.30;;;;;;;16.29;78.22;101933.31;5016734;28;20445;-87
2022/06/10 06:03:59;;;;;;;10.37;2.10;;;;;;;16.41;77.21;101927.91;5032729;28;20425;-87
2022/06/10 06:06:24;;;;;;;6.88;1.90;;;;;;;16.51;77.20;101939.16;5032583;28;20037;-86
2022/06/10 06:08:50;;;;;;;7.37;1.70;;;;;;;16.56;76.37;101931.06;5016323;28;20033;-87
2022/06/10 06:11:17;;;;;;;11.30;2.13;;;;;;;16.66;76.06;101945.06;5034031;28;20021;-87
2022/06/10 06:13:45;;;;;;;9.18;1.95;;;;;;;16.76;75.75;101940.97;5032431;28;20037;-87
2022/06/10 06:16:17;;;;;;;10.52;1.70;;;;;;;16.79;75.04;101935.84;5015767;28;20124;-86
2022/06/10 06:18:50;;;;;;;7.47;1.80;;;;;;;16.88;75.07;101944.63;5015961;28;20044;-87
2022/06/10 06:21:16;;;;;;;8.40;2.30;;;;;;;16.83;74.32;101945.31;5032197;28;20030;-87
2022/06/10 06:23:46;;;;;;;6.32;1.55;;;;;;;16.79;75.16;101941.34;5015478;28;20469;-87
2022/06/10 06:26:15;;;;;;;8.68;1.83;;;;;;;16.80;74.38;101953.13;5033574;28;20030;-87
2022/06/10 06:28:42;;;;;;;9.27;1.93;;;;;;;16.77;75.09;101948.13;5048381;28;20620;-86
2022/06/10 06:31:08;;;;;;;8.00;1.40;;;;;;;16.77;74.29;101951.72;5015326;28;20382;-87
2022/06/10 06:33:36;;;;;;;6.07;1.45;;;;;;;16.78;75.14;101947.88;5015334;28;20029;-87
2022/06/10 06:36:09;;;;;;;11.38;1.38;;;;;;;16.89;74.23;101956.44;5015761;28;20120;-86
2022/06/10 06:38:35;;;;;;;9.68;1.70;;;;;;;16.88;74.24;101961.09;5015502;28;20470;-87
2022/06/10 06:41:16;;;;;;;;;;;;;;;;;;;;;
2022/06/10 06:43:42;;;;;;;7.47;1.80;;;;;;;16.92;74.77;101962.31;5047146;28;20021;-87
2022/06/10 06:46:17;;;;;;;6.20;1.57;;;;;;;17.00;73.88;101964.72;5015629;28;20124;-86
2022/06/10 06:48:54;;;;;;;9.07;1.80;;;;;;;17.00;74.14;101966.63;5048569;28;20105;-86
2022/06/10 06:51:20;;;;;;;7.43;1.30;;;;;;;17.09;74.03;101978.94;4991691;28;20069;-87
2022/06/10 06:53:45;;;;;;;6.10;1.50;;;;;;;17.17;73.39;101969.56;5016224;28;20124;-87
2022/06/10 06:56:13;;;;;;;7.23;2.70;;;;;;;17.18;72.66;101983.03;5015877;28;20294;-85
2022/06/10 06:58:42;;;;;;;13.38;1.80;;;;;;;17.18;73.44;101972.06;5016074;28;20417;-87
2022/06/10 07:01:13;;;;;;;9.23;1.57;;;;;;;17.24;72.89;101977.69;5015475;28;20121;-86
2022/06/10 07:03:50;;;;;;;8.80;1.98;;;;;;;17.22;73.17;101977.09;5048710;28;20025;-86
2022/06/10 07:06:16;;;;;;;8.63;1.45;;;;;;;17.16;71.75;101976.94;5033898;28;20033;-86
2022/06/10 07:08:42;;;;;;;8.35;1.60;;;;;;;17.07;73.31;101972.03;5015806;28;20037;-86
2022/06/10 07:11:08;;;;;;;6.43;1.70;;;;;;;17.21;72.69;101970.75;5015170;28;20029;-86
2022/06/10 07:13:38;;;;;;;8.90;1.65;;;;;;;17.25;72.50;101968.41;5016232;28;20021;-86
2022/06/10 07:16:05;;;;;;;9.65;1.65;;;;;;;17.41;72.80;101962.25;5020228;28;20095;-86
2022/06/10 07:18:31;;;;;;;8.38;1.40;;;;;;;17.62;71.84;101965.53;5019666;28;20079;-86
2022/06/10 07:21:00;;;;;;;11.57;1.83;;;;;;;17.75;70.74;101969.97;5052047;28;20029;-86
2022/06/10 07:23:32;;;;;;;10.52;1.60;;;;;;;17.92;71.49;101975.63;5019650;28;20045;-86
2022/06/10 07:26:07;;;;;;;6.13;1.52;;;;;;;18.15;71.09;101978.38;5019668;28;20087;-86
2022/06/10 07:28:32;;;;;;;5.13;1.55;;;;;;;18.05;70.36;101984.47;5052076;28;20045;-86
2022/06/10 07:31:01;;;;;;;8.60;1.80;;;;;;;17.88;71.25;101981.53;5051852;28;20049;-86
2022/06/10 07:33:27;;;;;;;4.47;1.35;;;;;;;17.67;71.15;101976.59;5052407;28;20040;-86
2022/06/10 07:36:04;;;;;;;6.43;1.60;;;;;;;17.56;71.43;101981.00;5002662;28;20465;-87
2022/06/10 07:38:33;;;;;;;4.57;1.45;;;;;;;17.48;71.85;101981.34;5036749;28;20083;-86
2022/06/10 07:43:43;;;;;;;5.40;1.50;;;;;;;17.51;70.95;101976.22;5037152;28;20485;-86
2022/06/10 07:46:12;;;;;;;6.50;1.23;;;;;;;17.44;71.69;101972.75;5018853;28;20064;-86
2022/06/10 07:48:40;;;;;;;8.32;1.80;;;;;;;17.50;71.78;101980.03;5018633;28;20445;-86
2022/06/10 07:51:06;;;;;;;6.13;1.65;;;;;;;17.53;71.41;101976.00;5018877;28;20448;-86
2022/06/10 07:53:31;;;;;;;7.63;1.30;;;;;;;17.70;70.90;101970.66;5018753;28;20129;-86
2022/06/10 07:56:00;;;;;;;6.78;1.52;;;;;;;17.95;70.06;101973.25;5018635;28;20034;-86
2022/06/10 07:58:31;;;;;;;5.97;1.67;;;;;;;18.08;69.06;101963.91;5018426;28;20108;-86
2022/06/10 08:00:57;;;;;;;8.60;1.53;;;;;;;18.30;68.75;101960.56;5019047;28;20033;-87
2022/06/10 08:03:24;;;;;;;8.00;1.50;;;;;;;18.69;68.10;101972.69;5018894;28;20385;-86
2022/06/10 08:06:01;;;;;;;4.70;1.42;;;;;;;18.92;66.17;101969.06;5018297;28;20554;-86
2022/06/10 08:08:29;;;;;;;5.00;1.50;;;;;;;19.20;65.98;101977.59;5035919;28;20362;-86
2022/06/10 08:10:58;;;;;;;6.55;1.60;;;;;;;19.34;64.36;101975.34;5035030;28;20037;-87
2022/06/10 08:13:30;;;;;;;6.63;1.67;;;;;;;19.32;63.81;101967.34;5018319;28;20022;-86
2022/06/10 08:15:56;;;;;;;6.25;1.42;;;;;;;19.40;63.35;101979.84;5018385;28;20435;-86
2022/06/10 08:18:21;;;;;;;5.85;1.67;;;;;;;19.48;63.67;101979.47;5018061;28;20082;-86
2022/06/10 08:23:43;;;;;;;5.07;1.67;;;;;;;19.38;61.35;101982.84;5036699;28;20333;-86
2022/06/10 08:26:19;;;;;;;6.65;1.70;;;;;;;19.32;61.77;101977.53;5051593;28;20025;-86
2022/06/10 08:28:48;;;;;;;6.38;1.92;;;;;;;19.27;62.51;101983.78;5018988;28;20046;-86
2022/06/10 08:31:16;;;;;;;9.48;1.80;;;;;;;19.26;62.58;101982.09;5052268;28;20457;-87
2022/06/10 08:33:42;;;;;;;8.05;1.92;;;;;;;19.17;61.89;101981.66;5018049;28;20065;-86
2022/06/10 08:36:09;;;;;;;9.07;2.30;;;;;;;19.03;63.19;101989.38;5017828;28;20137;-85
2022/06/10 08:38:47;;;;;;;11.95;2.58;;;;;;;19.16;62.57;101985.47;5017867;28;20025;-86
2022/06/10 08:41:46;;;;;;;11.43;2.03;;;;;;;19.21;62.86;101984.75;5002166;28;20489;-88
2022/06/10 08:44:35;;;;;;;9.32;2.00;;;;;;;19.31;62.53;101979.47;5035738;28;20030;-88
2022/06/10 08:47:37;;;;;;;8.10;2.00;;;;;;;19.55;61.56;101973.81;5017732;28;20092;-88
2022/06/10 08:50:41;;;;;;;9.43;2.10;;;;;;;19.68;61.90;101970.75;5050473;28;20478;-88
2022/06/10 08:53:37;;;;;;;11.05;1.95;;;;;;;19.68;61.47;101964.38;5005091;28;20037;-86
2022/06/10 08:56:22;;;;;;;14.25;2.47;;;;;;;19.54;62.37;101967.47;5017655;28;20110;-86
2022/06/10 08:59:07;;;;;;;10.55;2.30;;;;;;;19.57;62.99;101968.88;5017324;28;20040;-86
2022/06/10 09:01:50;;;;;;;8.17;2.13;;;;;;;19.58;61.68;101962.31;5035339;28;20152;-86
2022/06/10 09:04:41;;;;;;;7.65;2.17;;;;;;;19.63;62.24;101968.75;5017247;28;20028;-86
2022/06/10 09:07:12;;;;;;;11.73;2.58;;;;;;;19.63;60.66;101957.72;5050867;28;20065;-88
2022/06/10 09:09:43;;;;;;;8.43;2.15;;;;;;;19.57;61.55;101966.13;5050824;28;20036;-86
2022/06/10 09:12:49;;;;;;;9.55;1.80;;;;;;;19.52;62.84;101957.81;5016974;28;20056;-86
2022/06/10 09:15:17;;;;;;;9.73;2.30;;;;;;;19.51;62.73;101959.72;5017623;28;20049;-86
2022/06/10 09:17:52;;;;;;;9.27;2.47;;;;;;;19.45;63.21;101952.44;5001826;28;20057;-86
2022/06/10 09:20:31;;;;;;;9.65;2.15;;;;;;;19.37;62.91;101953.69;5017713;28;20026;-86
2022/06/10 09:23:41;;;;;;;10.07;2.25;;;;;;;19.39;63.13;101968.03;5017295;28;20083;-86
2022/06/10 09:26:12;;;;;;;9.77;2.35;;;;;;;19.49;63.02;101969.28;5010250;28;20103;-86
2022/06/10 09:28:42;;;;;;;6.73;2.27;;;;;;;19.95;61.43;101984.69;5010365;28;20421;-86
2022/06/10 09:31:25;;;;;;;9.18;2.45;;;;;;;20.15;61.14;101969.56;4996829;28;20080;-86
2022/06/10 09:34:00;;;;;;;8.63;2.50;;;;;;;20.51;60.09;101964.56;4997496;28;20041;-86
2022/06/10 09:36:39;;;;;;;9.85;2.40;;;;;;;20.70;59.20;101969.78;4997109;28;20080;-86
2022/06/10 09:42:30;;;;;;;8.00;2.40;;;;;;;20.96;58.75;101984.72;5015206;28;20065;-85
2022/06/10 09:45:14;;;;;;;13.30;3.03;;;;;;;20.96;59.14;101962.66;4997890;28;20026;-85
2022/06/10 09:47:49;;;;;;;10.80;2.60;;;;;;;21.10;59.04;101969.44;4996974;28;20022;-85
2022/06/10 09:50:22;;;;;;;10.68;2.30;;;;;;;21.30;58.54;101968.00;4996575;28;20041;-85
2022/06/10 09:53:05;;;;;;;10.07;2.33;;;;;;;21.66;58.27;101971.94;5014526;28;20041;-86
2022/06/10 09:56:02;;;;;;;10.47;2.90;;;;;;;21.57;57.73;101970.78;4996714;28;20497;-86
2022/06/10 09:58:36;;;;;;;8.80;2.50;;;;;;;21.57;56.81;101967.16;4996698;28;20030;-85
2022/06/10 10:01:23;;;;;;;9.90;2.85;;;;;;;21.69;58.14;101957.63;5014133;28;20042;-87
2022/06/10 10:04:04;;;;;;;8.82;2.92;;;;;;;21.72;57.48;101970.91;5029581;28;20057;-87
2022/06/10 10:06:56;;;;;;;9.07;2.85;;;;;;;21.72;58.45;101970.06;5015016;28;20026;-87
2022/06/10 10:09:24;;;;;;;11.37;2.60;;;;;;;21.78;57.18;101968.19;4996382;28;20041;-87
2022/06/10 10:12:08;;;;;;;9.77;3.00;;;;;;;21.66;57.87;101966.44;5029484;28;20049;-88
2022/06/10 10:14:41;;;;;;;9.48;2.97;;;;;;;21.66;58.20;101969.19;5029516;28;20500;-88
2022/06/10 10:17:31;;;;;;;8.43;2.72;;;;;;;21.72;57.83;101979.19;4996773;28;20474;-87
2022/06/10 10:20:17;;;;;;;11.70;2.75;;;;;;;21.54;57.76;101969.38;5014697;28;20104;-88
2022/06/10 10:23:01;;;;;;;11.03;2.70;;;;;;;21.63;58.16;101968.88;4996691;28;20025;-88
2022/06/10 10:25:34;;;;;;;11.80;3.05;;;;;;;22.02;57.85;101961.16;5013825;28;20030;-89
2022/06/10 10:28:06;;;;;;;12.07;3.05;;;;;;;22.27;56.20;101964.38;5011981;28;20033;-89
2022/06/10 10:30:41;;;;;;;10.50;2.92;;;;;;;22.53;56.67;101965.34;5014744;28;20436;-88
2022/06/10 10:33:12;;;;;;;10.95;2.72;;;;;;;22.77;55.16;101963.81;5015062;28;20109;-85
2022/06/10 10:35:54;;;;;;;9.37;2.63;;;;;;;23.02;55.50;101953.94;5033073;28;20037;-88
2022/06/10 10:38:34;;;;;;;8.68;3.00;;;;;;;23.22;55.06;101955.97;5015457;28;20033;-88
2022/06/10 10:41:29;;;;;;;11.30;3.35;;;;;;;23.34;54.07;101949.31;5015507;28;20021;-88
2022/06/10 10:44:15;;;;;;;;;;;;;;;;;;;;;
2022/06/10 10:47:15;;;;;;;17.63;3.45;;;;;;;23.29;54.52;101948.19;5017763;28;20063;-88
2022/06/10 10:49:59;;;;;;;11.53;2.97;;;;;;;23.71;54.13;101960.13;5032926;28;20049;-87
2022/06/10 10:52:37;;;;;;;12.15;3.58;;;;;;;23.89;52.60;101953.22;5015181;28;20052;-88
2022/06/10 10:55:24;;;;;;;11.40;3.28;;;;;;;23.46;54.11;101945.16;5015429;28;20120;-88
2022/06/10 10:58:04;;;;;;;11.20;3.38;;;;;;;23.35;54.04;101962.88;5015706;28;20037;-88
2022/06/10 11:00:41;;;;;;;11.00;3.08;;;;;;;23.21;54.26;101948.75;5015647;28;20029;-88
2022/06/10 11:03:25;;;;;;;13.70;3.13;;;;;;;23.47;53.76;101949.63;5015537;28;20060;-88
2022/06/10 11:05:52;;;;;;;11.70;3.80;;;;;;;23.29;52.88;101955.69;5015221;28;20060;-88
2022/06/10 11:08:33;;;;;;;10.65;3.72;;;;;;;23.29;53.45;101953.72;5015361;28;20026;-88
2022/06/10 11:11:35;;;;;;;17.48;3.17;;;;;;;23.77;53.42;101955.41;5015232;28;20549;-88
2022/06/10 11:14:38;;;;;;;8.73;3.00;;;;;;;24.28;52.50;101958.13;5015608;28;20099;-88
2022/06/10 11:17:11;;;;;;;11.73;3.37;;;;;;;24.88;50.21;101951.81;4988095;28;20133;-88
2022/06/10 11:19:37;;;;;;;9.45;2.90;;;;;;;25.23;49.36;101949.94;5010664;28;20041;-88
2022/06/10 11:22:02;;;;;;;8.87;3.20;;;;;;;24.90;48.61;101946.81;5032847;28;20101;-88
2022/06/10 11:24:41;;;;;;;11.30;3.03;;;;;;;24.49;49.86;101946.97;5015834;28;20316;-88
2022/06/10 11:27:41;;;;;;;8.32;2.63;;;;;;;24.13;51.09;101958.19;5015978;28;20047;-88
2022/06/10 11:30:17;;;;;;;9.77;3.20;;;;;;;23.76;52.11;101954.59;5032783;28;20049;-88
2022/06/10 11:32:49;;;;;;;10.45;3.25;;;;;;;24.49;51.91;101946.97;5015112;28;20048;-88
2022/06/10 11:35:59;;;;;;;7.45;2.90;;;;;;;24.78;50.26;101947.16;5015218;28;20037;-87
2022/06/10 11:38:30;;;;;;;8.40;2.83;;;;;;;25.10;48.62;101943.09;5015295;28;20030;-88
2022/06/10 11:40:58;;;;;;;10.27;2.75;;;;;;;25.26;47.44;101942.97;5033063;28;20084;-88
2022/06/10 11:43:31;;;;;;;10.80;3.10;;;;;;;26.17;44.74;101940.53;5015119;28;20522;-88
2022/06/10 11:46:01;;;;;;;11.27;2.85;;;;;;;26.16;43.49;101930.56;5015523;28;20069;-88
2022/06/10 11:48:57;;;;;;;7.45;2.88;;;;;;;26.08;44.34;101932.00;5015281;28;20029;-88
2022/06/10 11:51:41;;;;;;;9.05;3.05;;;;;;;25.85;45.73;101922.50;5015007;28;20029;-88
2022/06/10 11:54:32;;;;;;;12.63;3.00;;;;;;;26.25;44.68;101927.97;5015043;28;20037;-88
2022/06/10 12:00:35;;;;;;;7.00;3.10;;;;;;;27.21;43.18;101917.75;5033121;28;20048;-88
2022/06/10 12:03:42;;;;;;;5.97;2.95;;;;;;;26.96;42.80;101917.03;5019264;28;20160;-88
2022/06/10 12:06:18;;;;;;;9.57;2.88;;;;;;;26.29;42.57;101931.78;5018143;28;20033;-88
2022/06/10 12:09:02;;;;;;;8.45;2.63;;;;;;;26.98;41.77;101928.69;5018551;28;20035;-88
2022/06/10 12:11:40;;;;;;;9.13;2.50;;;;;;;29.32;38.05;101916.41;5036455;28;20033;-88
2022/06/10 12:14:27;;;;;;;7.88;2.40;;;;;;;31.64;34.55;101921.69;5019123;28;20029;-88
2022/06/10 12:17:01;;;;;;;8.88;2.50;;;;;;;33.24;32.01;101902.44;5018271;28;20033;-88
2022/06/10 12:19:53;;;;;;;8.43;2.80;;;;;;;34.31;30.24;101898.88;5036153;28;20056;-88
2022/06/10 12:22:19;;;;;;;6.65;2.42;;;;;;;35.05;27.83;101884.63;5018913;28;20053;-88
2022/06/10 12:24:50;;;;;;;8.67;2.70;;;;;;;33.93;28.82;101897.22;5017750;28;20037;-88
2022/06/10 12:27:40;;;;;;;4.63;2.40;;;;;;;32.33;30.80;101892.53;5034996;28;20120;-89
2022/06/10 12:30:15;;;;;;;7.45;2.72;;;;;;;32.66;31.84;101874.97;5017824;28;20053;-88
2022/06/10 12:32:57;;;;;;;11.02;2.78;;;;;;;32.42;31.66;101894.44;5017898;28;20037;-89
2022/06/10 12:35:38;;;;;;;9.85;2.80;;;;;;;30.32;34.31;101884.31;5018327;28;20033;-89
2022/06/10 12:38:20;;;;;;;6.87;2.20;;;;;;;29.48;34.76;101878.50;5017745;28;20029;-89
2022/06/10 12:41:01;;;;;;;8.15;2.40;;;;;;;28.58;37.37;101873.66;5036030;28;20466;-89
2022/06/10 12:43:33;;;;;;;6.60;2.30;;;;;;;27.55;38.99;101878.50;5018921;28;20021;-89
2022/06/10 12:46:22;;;;;;;8.30;2.60;;;;;;;27.11;41.06;101880.59;5017686;28;20033;-89
2022/06/10 12:48:51;;;;;;;11.52;2.35;;;;;;;27.12;40.28;101875.84;5051265;28;20075;-89
2022/06/10 12:51:43;;;;;;;7.13;2.33;;;;;;;28.29;40.01;101869.28;5050326;28;20478;-89
2022/06/10 12:54:33;;;;;;;10.50;2.40;;;;;;;28.86;38.62;101871.66;5017976;28;20029;-89
2022/06/10 12:57:22;;;;;;;6.72;2.10;;;;;;;28.57;38.32;101877.59;5035278;28;20532;-88
2022/06/10 12:59:47;;;;;;;8.57;2.45;;;;;;;27.99;39.48;101870.72;5017011;28;20043;-89
2022/06/10 13:02:44;;;;;;;12.45;2.40;;;;;;;28.04;39.91;101867.03;5017597;28;20029;-89
2022/06/10 13:05:33;;;;;;;8.53;2.80;;;;;;;27.77;40.29;101869.44;4996510;28;20033;-89
2022/06/10 13:08:11;;;;;;;6.50;2.60;;;;;;;28.55;37.70;101865.91;5011756;28;20148;-89
2022/06/10 13:10:44;;;;;;;8.55;2.78;;;;;;;27.78;38.81;101864.69;5017270;28;20092;-89
2022/06/10 13:13:13;;;;;;;7.15;2.70;;;;;;;26.78;41.70;101876.91;5035076;28;20047;-88
2022/06/10 13:15:52;;;;;;;9.00;2.40;;;;;;;25.94;43.02;101880.16;5017692;28;20033;-89
2022/06/10 13:18:18;;;;;;;8.00;2.70;;;;;;;25.12;44.53;101882.53;5017453;28;20044;-89
2022/06/10 13:20:49;;;;;;;11.88;2.90;;;;;;;24.35;46.75;101883.78;5017070;28;20029;-89
2022/06/10 13:23:35;;;;;;;6.37;2.40;;;;;;;23.89;47.53;101883.94;5016892;28;20182;-88
2022/06/10 13:26:06;;;;;;;7.35;2.67;;;;;;;23.47;49.16;101883.16;5017524;28;20048;-89
2022/06/10 13:28:38;;;;;;;8.25;2.90;;;;;;;23.44;49.55;101882.84;5050390;28;20045;-89
2022/06/10 13:31:16;;;;;;;10.60;2.95;;;;;;;23.49;50.11;101880.09;5034671;28;20057;-89
2022/06/10 13:34:06;;;;;;;12.55;2.53;;;;;;;23.41;50.33;101886.19;5016903;28;20036;-90
2022/06/10 13:36:59;;;;;;;9.93;2.80;;;;;;;23.41;50.04;101889.78;5017080;28;20033;-90
2022/06/10 13:39:32;;;;;;;6.88;2.28;;;;;;;23.19;51.25;101892.00;5008588;28;20041;-90
2022/06/10 13:42:02;;;;;;;7.95;2.25;;;;;;;23.25;51.24;101883.44;5016894;28;20036;-89
2022/06/10 13:44:30;;;;;;;10.77;2.35;;;;;;;23.52;51.63;101896.16;5034633;28;20400;-89
2022/06/10 13:46:57;;;;;;;8.23;2.45;;;;;;;23.68;50.85;101891.44;5016990;28;20057;-89
2022/06/10 13:49:46;;;;;;;15.53;2.77;;;;;;;24.06;50.73;101885.56;5016618;28;20033;-89
2022/06/10 13:52:33;;;;;;;8.00;2.47;;;;;;;24.48;49.86;101884.31;5049473;28;20052;-89
2022/06/10 13:55:29;;;;;;;11.68;2.80;;;;;;;25.00;49.24;101884.84;5016816;28;20029;-89
2022/06/10 13:58:08;;;;;;;10.10;2.80;;;;;;;25.25;48.12;101883.84;5050296;28;20033;-89
2022/06/10 14:00:47;;;;;;;6.65;2.80;;;;;;;25.06;48.58;101882.88;5016401;28;20029;-89
2022/06/10 14:03:34;;;;;;;10.40;2.53;;;;;;;24.99;48.07;101885.97;5016404;28;20033;-89
2022/06/10 14:06:21;;;;;;;10.32;2.92;;;;;;;24.58;48.31;101891.72;5017235;28;20037;-89
2022/06/10 14:08:55;;;;;;;14.52;3.10;;;;;;;24.46;49.57;101886.50;5016458;28;20037;-89
2022/06/10 14:11:30;;;;;;;9.30;3.20;;;;;;;24.47;48.07;101885.41;5015971;28;20060;-89
2022/06/10 14:14:15;;;;;;;8.77;2.95;;;;;;;24.21;49.35;101882.72;5016140;28;20033;-89
2022/06/10 14:16:44;;;;;;;9.53;2.77;;;;;;;23.71;50.08;101879.78;5016787;28;20029;-89
2022/06/10 14:19:29;;;;;;;9.43;3.22;;;;;;;23.50;51.08;101883.69;5017306;28;20033;-89
2022/06/10 14:21:55;;;;;;;10.02;3.20;;;;;;;23.28;52.45;101887.56;5016215;28;20041;-89
2022/06/10 14:24:29;;;;;;;12.77;3.80;;;;;;;23.04;52.75;101885.28;5015730;28;20247;-89
2022/06/10 14:27:10;;;;;;;10.32;3.40;;;;;;;22.85;53.07;101881.38;5016908;28;20079;-89
2022/06/10 14:30:13;;;;;;;9.95;3.33;;;;;;;22.75;54.26;101885.81;5015949;28;20471;-88
2022/06/10 14:32:42;;;;;;;7.93;3.20;;;;;;;22.65;53.53;101884.91;5018120;28;20029;-89
2022/06/10 14:35:32;;;;;;;10.73;2.90;;;;;;;22.67;53.44;101886.31;5016056;28;20029;-88
2022/06/10 14:38:23;;;;;;;8.60;2.97;;;;;;;22.82;54.09;101885.53;5015984;28;20026;-89
2022/06/10 14:41:21;;;;;;;9.70;3.38;;;;;;;23.10;53.27;101881.47;5034263;28;20061;-89
2022/06/10 14:44:17;;;;;;;9.40;3.30;;;;;;;23.31;53.27;101870.38;5016237;28;20462;-89
2022/06/10 14:47:16;;;;;;;10.93;4.00;;;;;;;23.40;51.95;101870.66;4994745;28;20037;-89
2022/06/10 14:50:19;;;;;;;11.30;3.83;;;;;;;23.43;52.61;101872.88;5033256;28;20039;-88
2022/06/10 14:52:51;;;;;;;10.25;3.38;;;;;;;23.50;52.11;101865.13;4964290;28;20043;-89
2022/06/10 14:55:42;;;;;;;;;;;;;;;;;;;;;
2022/06/10 14:58:13;;;;;;;12.02;3.40;;;;;;;23.40;52.05;101877.06;5034174;28;20031;-89
2022/06/10 15:00:42;;;;;;;8.45;3.40;;;;;;;23.43;52.57;101870.09;5033432;28;20029;-88
2022/06/10 15:03:26;;;;;;;8.07;3.57;;;;;;;23.45;52.13;101868.72;5033507;28;20469;-88
2022/06/10 15:06:17;;;;;;;10.75;3.20;;;;;;;23.54;51.88;101873.72;5015574;28;20425;-89
2022/06/10 15:08:48;;;;;;;7.35;3.00;;;;;;;23.55;52.20;101873.44;5015850;28;20075;-89
2022/06/10 15:11:15;;;;;;;9.10;3.17;;;;;;;23.63;52.64;101867.31;5015319;28;20029;-88
2022/06/10 15:13:47;;;;;;;10.75;3.17;;;;;;;23.71;51.34;101865.09;5015715;28;20107;-88
2022/06/10 15:16:16;;;;;;;7.77;2.90;;;;;;;23.68;51.21;101862.88;5031951;28;20132;-88
2022/06/10 15:18:42;;;;;;;7.90;2.70;;;;;;;23.71;51.33;101865.94;5017007;28;20022;-89
2022/06/10 15:21:25;;;;;;;8.80;2.97;;;;;;;23.80;51.51;101864.25;5016119;28;20116;-89
2022/06/10 15:24:13;;;;;;;6.80;2.72;;;;;;;23.76;51.55;101857.59;5001879;28;20049;-89
2022/06/10 15:26:48;;;;;;;5.07;2.55;;;;;;;23.61;50.63;101858.47;5015004;28;20541;-88
2022/06/10 15:29:22;;;;;;;9.67;2.10;;;;;;;23.55;52.01;101862.38;5015637;28;20057;-89
2022/06/10 15:31:52;;;;;;;7.25;2.40;;;;;;;23.34;51.45;101852.41;5015504;28;20533;-89
2022/06/10 15:34:20;;;;;;;7.50;2.28;;;;;;;23.18;52.07;101860.72;5048205;28;20493;-89
2022/06/10 15:42:41;;;;;;;6.47;2.20;;;;;;;23.05;52.65;101848.22;5037301;28;20053;-88
2022/06/10 15:45:16;;;;;;;9.45;2.35;;;;;;;22.93;53.06;101853.19;5035690;28;20136;-89
2022/06/10 15:47:48;;;;;;;8.88;2.40;;;;;;;22.87;53.84;101846.81;5019097;28;20026;-88
2022/06/10 15:50:14;;;;;;;6.97;2.08;;;;;;;23.01;53.41;101847.09;5019167;28;20025;-88
2022/06/10 15:52:40;;;;;;;6.67;1.87;;;;;;;23.10;53.36;101847.41;5018417;28;20390;-88
2022/06/10 15:58:21;;;;;;;9.23;2.92;;;;;;;23.15;52.31;101844.66;5037102;28;20433;-88
2022/06/10 16:00:49;;;;;;;5.23;1.93;;;;;;;23.22;53.03;101844.38;5019022;28;20092;-88
2022/06/10 16:03:19;;;;;;;7.82;2.20;;;;;;;23.36;52.60;101841.91;5018490;28;20029;-89
2022/06/10 16:05:57;;;;;;;6.88;2.42;;;;;;;23.60;52.32;101836.59;5036129;28;20033;-89
2022/06/10 16:08:28;;;;;;;10.18;2.58;;;;;;;23.83;51.43;101835.97;5019205;28;20331;-88
2022/06/10 16:11:04;;;;;;;7.53;2.10;;;;;;;23.87;50.96;101839.03;5035270;28;20045;-88
2022/06/10 16:13:39;;;;;;;6.93;2.03;;;;;;;24.00;50.93;101834.84;5018057;28;20060;-89
2022/06/10 16:16:07;;;;;;;5.70;2.10;;;;;;;24.10;50.21;101837.59;5018334;28;20061;-88
2022/06/10 16:18:44;;;;;;;8.48;2.30;;;;;;;24.20;51.02;101833.09;5018575;28;20037;-88
2022/06/10 16:21:12;;;;;;;6.32;2.20;;;;;;;24.07;50.76;101835.38;5018266;28;20124;-88
2022/06/10 16:23:39;;;;;;;7.35;2.55;;;;;;;23.87;51.32;101841.00;5018507;28;20038;-89
2022/06/10 16:26:23;;;;;;;6.60;2.27;;;;;;;23.77;51.48;101839.03;5018864;28;20033;-88
2022/06/10 16:28:52;;;;;;;9.38;2.42;;;;;;;23.50;51.61;101836.59;5018072;28;20490;-88
2022/06/10 16:31:31;;;;;;;8.23;2.42;;;;;;;23.30;53.13;101830.81;5018291;28;20482;-90
2022/06/10 16:33:57;;;;;;;7.97;2.50;;;;;;;23.16;53.10;101829.69;5035879;28;20040;-89
2022/06/10 16:36:24;;;;;;;7.73;2.40;;;;;;;23.06;53.64;101832.44;5018813;28;20037;-89
2022/06/10 16:38:53;;;;;;;7.45;2.92;;;;;;;22.89;53.88;101829.94;5036646;28;20025;-89
2022/06/10 16:41:29;;;;;;;7.78;2.78;;;;;;;22.76;54.95;101831.31;5018168;28;20091;-89
2022/06/10 16:43:59;;;;;;;9.18;2.60;;;;;;;22.66;54.92;101828.50;5017805;28;20056;-89
2022/06/10 16:46:33;;;;;;;6.33;2.70;;;;;;;22.45;55.12;101831.22;5017233;28;20030;-89